• Join FlightAware (Why Join?)
  • Login
  • US Flag 
07:26PM EST


 

Airport Tracker/Info


-or-


 

Live Flight TrackerFlight Track Log ✈ N405DD ✈ 08-May-2013 ✈ KFAR - KGFK

Flight Track Log - Related Links

Times and Time Zones

All times are in EDT time to prevent confusion due to time zone crossing. See the N405DD flight status page for this flight to view local times or setup timezone preferences in your user account.

Time Position Orientation Groundspeed Altitude Reporting Facility
EDT Latitude Longitude Course Direction KTS MPH feet Rate Location/Type
06:16PM 47.0656 -96.8656 347° North 155 178 5,400  Level Minneapolis Center
06:17PM 47.1094 -96.8806 347° North 156 180 6,600 1,080 Climbing Minneapolis Center
06:18PM 47.1550 -96.8964 347° North 161 185 7,700 660 Climbing Minneapolis Center
06:19PM 47.2209 -96.9180 347° North  Level FlightAware Approximate
06:19PM 47.2044 -96.9133 347° North 172 198 8,000  Level Minneapolis Center
06:19PM 47.2306 -96.9239 345° North 199 229 8,000  Level Minneapolis Center
06:20PM 47.2721 -96.9350 347° North  Level FlightAware Approximate
06:20PM 47.2650 -96.9350 348° North 210 242 8,000  Level Minneapolis Center
06:20PM 47.2867 -96.9425 347° North 212 244 8,000  Level Minneapolis Center
06:21PM 47.3256 -96.9558 347° North 213 245 8,000 -120 Level Minneapolis Center
06:21PM 47.3467 -96.9633 346° North 216 249 7,900 -900 Descending Minneapolis Center
06:22PM 47.3817 -96.9747 348° North 214 246 7,100 -900 Descending Minneapolis Center
06:27PM 47.6500 -97.0450 348° North 163 188 2,900 -720 Descending FlightAware
06:28PM 47.6870 -97.0570 348° North 172 198 2,900  Level FlightAware
06:28PM 47.6880 -97.0670 278° West 182 209 2,900  Level FlightAware
06:28PM 47.6880 -97.1080 270° West 183 211 2,900  Level FlightAware
06:29PM 47.6870 -97.1420 268° West 150 173 2,900 60 Level FlightAware
06:29PM 47.6860 -97.1650 266° West 150 173 3,000 120 Climbing FlightAware
06:30PM 47.6960 -97.1820 311° West 127 146 3,000 -180 Level FlightAware
06:30PM 47.7060 -97.1770 19° North 125 144 2,900  Descending FlightAware
06:31PM 47.7190 -97.1680 25° Northeast 129 148 3,000  Climbing FlightAware
06:31PM 47.7350 -97.1590 21° North 135 155 2,900 -120 Descending FlightAware
06:31PM 47.7530 -97.1630 352° North 135 155 2,900  Level FlightAware
06:32PM 47.7710 -97.1650 356° North 133 153 2,900  Level FlightAware
06:32PM 47.7720 -97.1650 360° North 133 153 2,900 240 Level FlightAware
06:32PM 47.7860 -97.1640 North 132 152 3,000 -420 Climbing FlightAware
06:33PM 47.8130 -97.1650 359° North 127 146 2,500 -540 Descending FlightAware
06:33PM 47.8210 -97.1650 360° North 129 148 2,500 -180 Level FlightAware
06:34PM 47.8360 -97.1670 355° North 122 140 2,400 -120 Descending FlightAware
06:34PM 47.8520 -97.1700 353° North 113 130 2,400 60 Level FlightAware
06:35PM 47.8670 -97.1730 352° North 96 110 2,500 -120 Climbing FlightAware
06:35PM 47.8760 -97.1740 356° North 83 96 2,300 -660 Descending FlightAware
06:36PM 47.8880 -97.1750 357° North 84 97 1,900 -900 Descending FlightAware
06:36PM 47.8980 -97.1770 352° North 88 101 1,500 -660 Descending FlightAware
06:37PM 47.9100 -97.1790 354° North 83 96 1,300 -300 Descending FlightAware
06:37PM 47.9210 -97.1810 353° North 84 97 1,200 -240 Descending FlightAware
06:38PM 47.9310 -97.1820 356° North 90 104 1,100 -120 Descending FlightAware
06:38PM 47.9440 -97.1840 354° North 79 91 1,100 540 Level FlightAware
06:38PM 47.9530 -97.1850 356° North 98 113 1,600 1,500 Climbing FlightAware
06:39PM 47.9670 -97.1820 North 96 110 2,500 1,740 Climbing FlightAware
06:39PM 47.9780 -97.1800 North 97 112 3,200 1,620 Climbing FlightAware
06:40PM 47.9860 -97.1770 14° North 107 123 3,600 1,440 Climbing FlightAware
06:40PM 47.9990 -97.1690 22° Northeast 118 136 4,300 1,320 Climbing FlightAware
06:40PM 48.0020 -97.1550 72° East 132 152 4,600 960 Climbing FlightAware
06:41PM 47.9990 -97.1420 109° East 145 167 4,800 720 Climbing FlightAware
06:41PM 47.9920 -97.1360 150° Southeast 158 182 4,900 300 Climbing FlightAware
06:41PM 47.9720 -97.1480 202° Southwest 180 207 5,000  Climbing FlightAware
06:42PM 47.9570 -97.1770 232° Southwest 168 193 4,900 -120 Descending FlightAware
06:42PM 47.9440 -97.1960 224° Southwest 165 190 4,900  Level FlightAware
06:43PM 47.9230 -97.1890 167° South 161 185 4,900 120 Level FlightAware
06:43PM 47.9110 -97.1840 164° South 156 180 5,000  Climbing FlightAware
06:43PM 47.8950 -97.1800 170° South 156 180 4,900 -180 Descending FlightAware
06:44PM 47.8900 -97.1640 115° Southeast 153 176 4,900  Level FlightAware
06:44PM 47.9000 -97.1470 49° Northeast 142 163 4,900 60 Level FlightAware
06:45PM 47.9170 -97.1580 337° Northwest 141 162 5,000  Climbing FlightAware
06:45PM 47.9330 -97.1750 325° Northwest 144 166 4,900 -120 Descending FlightAware
06:45PM 47.9480 -97.1870 332° Northwest 144 166 4,900 60 Level FlightAware
06:46PM 47.9720 -97.1740 20° North 150 173 5,000  Climbing FlightAware
06:47PM 47.9610 -97.1550 131° Southeast 153 176 4,900 -120 Descending FlightAware
06:47PM 47.9390 -97.1530 177° South 154 177 4,900  Level FlightAware
06:48PM 47.9190 -97.1530 180° South 154 177 4,900  Level FlightAware
06:48PM 47.9010 -97.1480 169° South 155 178 4,900 -600 Level FlightAware
06:49PM 47.8800 -97.1330 154° Southeast 179 206 4,400 -1,020 Descending FlightAware
06:49PM 47.8610 -97.1190 154° Southeast 191 220 4,000 -600 Descending FlightAware
06:49PM 47.8360 -97.1020 155° Southeast 187 215 3,900 -120 Descending FlightAware
06:50PM 47.8130 -97.0860 155° Southeast 187 215 3,900 60 Level FlightAware
06:50PM 47.7940 -97.0720 154° Southeast 191 220 4,000  Climbing FlightAware
06:51PM 47.7800 -97.0640 159° South 201 231 3,900 -720 Descending FlightAware
06:51PM 47.7510 -97.0660 183° South 221 254 3,500 -900 Descending FlightAware
06:52PM 47.7250 -97.0690 184° South 231 266 3,100 -660 Descending FlightAware
06:52PM 47.6970 -97.0780 192° South 221 254 2,900 -240 Descending FlightAware
06:52PM 47.6870 -97.1120 246° West 183 211 2,900  Level FlightAware
06:53PM 47.6940 -97.1420 289° West 150 173 2,900  Level FlightAware
06:53PM 47.7010 -97.1520 316° Northwest 144 166 2,900  Level FlightAware
06:54PM 47.7130 -97.1690 316° Northwest 139 160 2,900  Level FlightAware
06:54PM 47.7290 -97.1820 331° Northwest 124 143 2,900 60 Level FlightAware
06:55PM 47.7490 -97.1840 356° North 122 140 3,000  Climbing FlightAware
06:55PM 47.7600 -97.1810 10° North 124 143 2,900 -240 Descending FlightAware
06:55PM 47.7680 -97.1810 360° North 120 138 2,900  Level FlightAware
06:56PM 47.7830 -97.1810 360° North 113 130 2,900  Level FlightAware
06:56PM 47.8040 -97.1810 360° North 111 128 2,900  Level FlightAware
06:57PM 47.8090 -97.1810 360° North 108 124 2,900 120 Level FlightAware
06:57PM 47.8210 -97.1810 360° North 82 94 3,000 -360 Climbing FlightAware
06:58PM 47.8400 -97.1810 360° North 79 91 2,500 -600 Descending FlightAware
06:58PM 47.8450 -97.1810 360° North 74 85 2,400 -300 Descending FlightAware
06:59PM 47.8560 -97.1820 357° North 80 92 2,300 -360 Descending FlightAware
06:59PM 47.8700 -97.1810 North 81 93 2,000 -480 Descending FlightAware
07:00PM 47.8820 -97.1810 360° North 81 93 1,800 -300 Descending FlightAware
07:00PM 47.8850 -97.1820 347° North 81 93 1,800 -300 Level FlightAware
07:00PM 47.8970 -97.1810 North 85 98 1,600 -420 Descending FlightAware
07:01PM 47.9080 -97.1810 360° North 83 96 1,400 -480 Descending FlightAware
07:02PM 47.9230 -97.1810 360° North 77 89 1,100 -420 Descending FlightAware
07:02PM 47.9350 -97.1810 360° North 77 89 900 -240 Descending FlightAware
07:03PM 47.9440 -97.1820 356° North 77 89 900 180 Level FlightAware
07:04PM 47.9570 -97.1810 North 87 100 1,200 660 Climbing FlightAware
07:04PM 47.9710 -97.1820 357° North 105 121 2,000 1,020 Climbing FlightAware
07:05PM 47.9770 -97.1900 318° Northwest 130 150 2,000  Level FlightAware
07:05PM 47.9770 -97.1940 270° West 143 165 2,000  Level FlightAware
07:05PM 47.9660 -97.2120 228° Southwest 157 181 2,000 60 Level FlightAware
07:06PM 47.9400 -97.2130 181° South 131 151 2,100 -120 Climbing FlightAware
07:06PM 47.9320 -97.2090 161° South 127 146 1,900 -1,200 Descending FlightAware
07:06PM 47.9280 -97.2030 135° Southeast 120 138 1,600 -1,440 Descending FlightAware
07:06PM 47.9260 -97.1890 102° East 109 125 1,200 -960 Descending FlightAware
07:07PM 47.9340 -97.1810 34° Northeast 83 96 900 -420 Descending FlightAware
07:08PM 47.9470 -97.1810 360° North 75 86 800 -180 Descending FlightAware